Red Deer Regional Airport
CYQF : now visible

Airfield :











YOU CAN JOIN US ON...

 
LOGIN :

Register | Disclaimer

   EN    FR    IT 

 









Legend :    VFR   Marginal VFR   IFR   Intensive IFR   Very Intensive IFR
Visi :
Ceiling :
>= 8 km
>= 3000ft
5 to 8 km
1000 to 3000 ft
1500m to 5 km
500 to 1000 ft
800 to 1500m
200 to 500 ft
< 800m
< 200 ft
Symbols :   Thunderstorms  Fog  Heavy snow  Heavy precipitations  Wind > 20 kt






- Airport Elevation : 2968 ft
- IATA code : YQF


CYQF - Red Deer Regional

CURRENT METAR :
  • 162200Z AUTO 36008KT 9SM SCT160 BKN180 BKN200 26/16 A3002 RMK SLP168 DENSITY ALT 4800FT

EXPIRED METARs :
  • 162100Z AUTO 34009KT 320V030 9SM FEW170 OVC220 28/14 A3002 RMK SLP165 DENSITY ALT 5000FT
  • 162000Z AUTO VRB06KT 9SM BKN190 BKN230 27/11 A3002 RMK SLP164 DENSITY ALT 4900FT

TAF TAF CYQF
Valid from the 16 at 18:00 until the 17 at 06:00 UTC


161740Z 1618/1706 22005KT P6SM FEW180 SCT250
FM162000 32006KT P6SM BKN120 BKN220
BECMG 1622/1624 36012KT
FM170200 36012KT P6SM SCT060 BKN100
TEMPO 1702/1706 P6SM -SHRA BKN060 BKN100
PROB30 1702/1706 VRB15G25KT 4SM TSRA BKN060CB BKN100 RMK FCST BASED ON AUTO OBS. NXT FCST BY 170000Z
CZEG FIR / North America



MET'MAP, your aeronautical weather chart ! - Copyright ORBIFLY December 2007 - Disclaimer

ORBIFLY MET'MAP TEAM :

Programming & Development : Alexandra Zaïnal
Original concept : Baudouin d'Aumeries
Technical & hardware support : Manuel Goepfert
Assistance : Marc-Olivier Méhu




SOURCES & CREDITS :

   NOAA       Earth
Advisory